Abbotsford, Wisconsin
Current Conditions -  °F | °C
As of 11:55 AM on Wednesday 28 Jan 2015 (Local Time) from KMDZ Reporting Station
Overcast Overcast  
Wind Chill: 12°   Ceiling: 600
Heat Index: 24°   Visibility: 7mi
Dew Point: 21°   Wind: 14mph
Humidity: 88%   Direction: 140°SE
Pressure: 30.01"   Gusts: 18mph
Location:  44.95°N, 90.32°W
Report Text: KMDZ 281755Z AUTO 14012G16KT 7SM OVC006 M04/M06 A3001 RMK AO2 T10451062 11045 21055
Loading
Personal Weather Stations






























Interactive Weather Map New forecast layout! Learn more

10-Day Weather Forecast

Advertisements
Track Severe Weather on mobile